sensor_id;sensor_type;location;lat;lon;timestamp;P1;durP1;ratioP1;P2;durP2;ratioP2
47365;SDS011;33105;47.964;7.982;2023-08-06T00:01:40;5.57;;;1.60;;
47365;SDS011;33105;47.964;7.982;2023-08-06T00:04:45;8.05;;;2.20;;
47365;SDS011;33105;47.964;7.982;2023-08-06T00:07:50;8.88;;;1.70;;
47365;SDS011;33105;47.964;7.982;2023-08-06T00:10:54;5.20;;;1.63;;
47365;SDS011;33105;47.964;7.982;2023-08-06T00:14:02;3.42;;;1.65;;
47365;SDS011;33105;47.964;7.982;2023-08-06T00:17:51;3.78;;;1.52;;
47365;SDS011;33105;47.964;7.982;2023-08-06T00:21:42;4.07;;;1.80;;
47365;SDS011;33105;47.964;7.982;2023-08-06T00:31:23;4.90;;;1.95;;
47365;SDS011;33105;47.964;7.982;2023-08-06T00:39:50;3.00;;;1.90;;
47365;SDS011;33105;47.964;7.982;2023-08-06T00:42:58;3.28;;;1.75;;
47365;SDS011;33105;47.964;7.982;2023-08-06T00:46:00;3.88;;;2.00;;
47365;SDS011;33105;47.964;7.982;2023-08-06T00:49:02;2.72;;;1.80;;
47365;SDS011;33105;47.964;7.982;2023-08-06T00:52:13;3.70;;;1.70;;
47365;SDS011;33105;47.964;7.982;2023-08-06T00:55:39;9.20;;;2.45;;
47365;SDS011;33105;47.964;7.982;2023-08-06T00:59:33;6.75;;;1.90;;
47365;SDS011;33105;47.964;7.982;2023-08-06T01:02:52;3.05;;;1.50;;
47365;SDS011;33105;47.964;7.982;2023-08-06T01:06:45;5.00;;;1.48;;
47365;SDS011;33105;47.964;7.982;2023-08-06T01:14:44;5.07;;;1.60;;
47365;SDS011;33105;47.964;7.982;2023-08-06T01:17:54;2.35;;;1.27;;
47365;SDS011;33105;47.964;7.982;2023-08-06T01:21:23;3.63;;;1.55;;
47365;SDS011;33105;47.964;7.982;2023-08-06T01:24:31;4.38;;;1.60;;
47365;SDS011;33105;47.964;7.982;2023-08-06T01:27:50;6.32;;;1.33;;
47365;SDS011;33105;47.964;7.982;2023-08-06T01:31:31;5.32;;;1.65;;
47365;SDS011;33105;47.964;7.982;2023-08-06T01:34:40;3.83;;;1.23;;
47365;SDS011;33105;47.964;7.982;2023-08-06T01:38:20;4.50;;;1.27;;
47365;SDS011;33105;47.964;7.982;2023-08-06T01:42:09;4.97;;;1.58;;
47365;SDS011;33105;47.964;7.982;2023-08-06T01:45:51;3.22;;;1.30;;
47365;SDS011;33105;47.964;7.982;2023-08-06T01:49:22;3.72;;;1.23;;
47365;SDS011;33105;47.964;7.982;2023-08-06T01:53:05;4.72;;;1.20;;
47365;SDS011;33105;47.964;7.982;2023-08-06T01:56:22;4.43;;;1.23;;
47365;SDS011;33105;47.964;7.982;2023-08-06T01:59:32;5.38;;;1.20;;
47365;SDS011;33105;47.964;7.982;2023-08-06T02:02:36;9.35;;;1.67;;
47365;SDS011;33105;47.964;7.982;2023-08-06T02:09:39;9.15;;;1.77;;
47365;SDS011;33105;47.964;7.982;2023-08-06T02:16:22;9.48;;;1.55;;
47365;SDS011;33105;47.964;7.982;2023-08-06T02:19:33;10.23;;;2.13;;
47365;SDS011;33105;47.964;7.982;2023-08-06T02:23:12;6.10;;;1.35;;
47365;SDS011;33105;47.964;7.982;2023-08-06T02:26:21;8.45;;;1.95;;
47365;SDS011;33105;47.964;7.982;2023-08-06T02:30:42;11.48;;;2.05;;
47365;SDS011;33105;47.964;7.982;2023-08-06T02:34:55;5.57;;;1.55;;
47365;SDS011;33105;47.964;7.982;2023-08-06T02:38:18;6.93;;;2.05;;
47365;SDS011;33105;47.964;7.982;2023-08-06T02:41:57;4.50;;;1.10;;
47365;SDS011;33105;47.964;7.982;2023-08-06T02:44:59;12.18;;;1.85;;
47365;SDS011;33105;47.964;7.982;2023-08-06T02:48:06;4.35;;;1.27;;
47365;SDS011;33105;47.964;7.982;2023-08-06T02:51:08;5.50;;;1.67;;
47365;SDS011;33105;47.964;7.982;2023-08-06T02:54:09;4.53;;;0.98;;
47365;SDS011;33105;47.964;7.982;2023-08-06T02:57:11;2.97;;;0.93;;
47365;SDS011;33105;47.964;7.982;2023-08-06T03:00:13;2.80;;;0.90;;
47365;SDS011;33105;47.964;7.982;2023-08-06T03:03:15;3.13;;;0.80;;
47365;SDS011;33105;47.964;7.982;2023-08-06T03:06:26;1.83;;;0.65;;
47365;SDS011;33105;47.964;7.982;2023-08-06T03:09:30;3.10;;;0.82;;
47365;SDS011;33105;47.964;7.982;2023-08-06T03:12:32;1.80;;;0.60;;
47365;SDS011;33105;47.964;7.982;2023-08-06T03:15:35;3.70;;;0.50;;
47365;SDS011;33105;47.964;7.982;2023-08-06T03:18:37;1.45;;;0.40;;
47365;SDS011;33105;47.964;7.982;2023-08-06T03:21:43;1.67;;;0.40;;
47365;SDS011;33105;47.964;7.982;2023-08-06T03:24:45;1.80;;;0.52;;
47365;SDS011;33105;47.964;7.982;2023-08-06T03:27:47;3.03;;;0.50;;
47365;SDS011;33105;47.964;7.982;2023-08-06T03:30:58;3.13;;;0.70;;
47365;SDS011;33105;47.964;7.982;2023-08-06T03:34:01;2.47;;;0.43;;
47365;SDS011;33105;47.964;7.982;2023-08-06T03:37:05;1.27;;;0.20;;
47365;SDS011;33105;47.964;7.982;2023-08-06T03:40:08;3.63;;;0.60;;
47365;SDS011;33105;47.964;7.982;2023-08-06T03:43:10;4.65;;;0.93;;
47365;SDS011;33105;47.964;7.982;2023-08-06T03:46:15;8.18;;;0.88;;
47365;SDS011;33105;47.964;7.982;2023-08-06T03:49:19;4.32;;;0.60;;
47365;SDS011;33105;47.964;7.982;2023-08-06T03:52:21;2.40;;;0.40;;
47365;SDS011;33105;47.964;7.982;2023-08-06T03:55:23;2.97;;;0.55;;
47365;SDS011;33105;47.964;7.982;2023-08-06T03:58:24;1.10;;;0.40;;
47365;SDS011;33105;47.964;7.982;2023-08-06T04:01:26;3.42;;;0.30;;
47365;SDS011;33105;47.964;7.982;2023-08-06T04:04:28;1.42;;;0.50;;
47365;SDS011;33105;47.964;7.982;2023-08-06T04:07:29;2.08;;;0.40;;
47365;SDS011;33105;47.964;7.982;2023-08-06T04:10:31;5.95;;;0.70;;
47365;SDS011;33105;47.964;7.982;2023-08-06T04:13:32;3.80;;;0.77;;
47365;SDS011;33105;47.964;7.982;2023-08-06T04:16:33;4.25;;;0.50;;
47365;SDS011;33105;47.964;7.982;2023-08-06T04:19:35;2.30;;;0.80;;
47365;SDS011;33105;47.964;7.982;2023-08-06T04:22:36;2.05;;;0.52;;
47365;SDS011;33105;47.964;7.982;2023-08-06T04:25:38;2.30;;;0.52;;
47365;SDS011;33105;47.964;7.982;2023-08-06T04:28:40;1.15;;;0.47;;
47365;SDS011;33105;47.964;7.982;2023-08-06T04:31:41;2.92;;;0.50;;
47365;SDS011;33105;47.964;7.982;2023-08-06T04:34:43;2.17;;;0.60;;
47365;SDS011;33105;47.964;7.982;2023-08-06T04:37:44;2.45;;;0.60;;
47365;SDS011;33105;47.964;7.982;2023-08-06T04:40:47;3.03;;;0.60;;
47365;SDS011;33105;47.964;7.982;2023-08-06T04:43:48;2.90;;;0.50;;
47365;SDS011;33105;47.964;7.982;2023-08-06T04:46:50;1.17;;;0.40;;
47365;SDS011;33105;47.964;7.982;2023-08-06T04:49:51;2.13;;;0.50;;
47365;SDS011;33105;47.964;7.982;2023-08-06T04:52:52;1.73;;;0.50;;
47365;SDS011;33105;47.964;7.982;2023-08-06T04:55:54;2.75;;;0.63;;
47365;SDS011;33105;47.964;7.982;2023-08-06T04:58:58;2.03;;;0.65;;
47365;SDS011;33105;47.964;7.982;2023-08-06T05:02:02;4.43;;;0.70;;
47365;SDS011;33105;47.964;7.982;2023-08-06T05:05:04;2.70;;;0.60;;
47365;SDS011;33105;47.964;7.982;2023-08-06T05:08:13;4.78;;;0.70;;
47365;SDS011;33105;47.964;7.982;2023-08-06T05:11:16;5.60;;;0.90;;
47365;SDS011;33105;47.964;7.982;2023-08-06T05:14:18;3.47;;;0.95;;
47365;SDS011;33105;47.964;7.982;2023-08-06T05:17:19;5.35;;;0.93;;
47365;SDS011;33105;47.964;7.982;2023-08-06T05:20:21;4.72;;;0.90;;
47365;SDS011;33105;47.964;7.982;2023-08-06T05:23:22;6.95;;;0.93;;
47365;SDS011;33105;47.964;7.982;2023-08-06T05:26:24;5.13;;;0.80;;
47365;SDS011;33105;47.964;7.982;2023-08-06T05:29:25;6.07;;;0.77;;
47365;SDS011;33105;47.964;7.982;2023-08-06T05:32:28;2.80;;;0.50;;
47365;SDS011;33105;47.964;7.982;2023-08-06T05:35:29;2.67;;;0.40;;
47365;SDS011;33105;47.964;7.982;2023-08-06T05:38:30;0.70;;;0.32;;
47365;SDS011;33105;47.964;7.982;2023-08-06T05:41:31;1.30;;;0.60;;
47365;SDS011;33105;47.964;7.982;2023-08-06T05:44:33;2.08;;;0.35;;
47365;SDS011;33105;47.964;7.982;2023-08-06T05:47:34;1.83;;;0.35;;
47365;SDS011;33105;47.964;7.982;2023-08-06T05:50:35;0.35;;;0.30;;
47365;SDS011;33105;47.964;7.982;2023-08-06T05:53:36;1.35;;;0.20;;
47365;SDS011;33105;47.964;7.982;2023-08-06T05:56:37;2.15;;;0.20;;
47365;SDS011;33105;47.964;7.982;2023-08-06T05:59:40;3.33;;;0.40;;
47365;SDS011;33105;47.964;7.982;2023-08-06T06:02:41;1.33;;;0.25;;
47365;SDS011;33105;47.964;7.982;2023-08-06T06:05:42;1.92;;;0.30;;
47365;SDS011;33105;47.964;7.982;2023-08-06T06:08:44;3.75;;;0.30;;
47365;SDS011;33105;47.964;7.982;2023-08-06T06:11:45;0.73;;;0.20;;
47365;SDS011;33105;47.964;7.982;2023-08-06T06:14:47;1.95;;;0.47;;
47365;SDS011;33105;47.964;7.982;2023-08-06T06:17:48;2.45;;;0.52;;
47365;SDS011;33105;47.964;7.982;2023-08-06T06:20:50;1.27;;;0.40;;
47365;SDS011;33105;47.964;7.982;2023-08-06T06:25:34;1.30;;;0.50;;
47365;SDS011;33105;47.964;7.982;2023-08-06T06:28:35;3.70;;;0.40;;
47365;SDS011;33105;47.964;7.982;2023-08-06T06:31:37;1.52;;;0.40;;
47365;SDS011;33105;47.964;7.982;2023-08-06T06:34:38;0.30;;;0.30;;
47365;SDS011;33105;47.964;7.982;2023-08-06T06:37:39;1.63;;;0.40;;
47365;SDS011;33105;47.964;7.982;2023-08-06T06:40:40;2.92;;;0.65;;
47365;SDS011;33105;47.964;7.982;2023-08-06T06:43:42;2.58;;;0.40;;
47365;SDS011;33105;47.964;7.982;2023-08-06T06:46:43;0.45;;;0.20;;
47365;SDS011;33105;47.964;7.982;2023-08-06T06:49:44;0.68;;;0.40;;
47365;SDS011;33105;47.964;7.982;2023-08-06T06:52:46;0.60;;;0.22;;
47365;SDS011;33105;47.964;7.982;2023-08-06T06:55:47;2.95;;;0.30;;
47365;SDS011;33105;47.964;7.982;2023-08-06T06:58:50;0.10;;;0.10;;
47365;SDS011;33105;47.964;7.982;2023-08-06T07:01:51;1.63;;;0.38;;
47365;SDS011;33105;47.964;7.982;2023-08-06T07:04:52;1.83;;;0.40;;
47365;SDS011;33105;47.964;7.982;2023-08-06T07:07:53;0.63;;;0.40;;
47365;SDS011;33105;47.964;7.982;2023-08-06T07:11:04;0.50;;;0.30;;
47365;SDS011;33105;47.964;7.982;2023-08-06T07:14:07;3.13;;;0.50;;
47365;SDS011;33105;47.964;7.982;2023-08-06T07:17:08;2.22;;;0.30;;
47365;SDS011;33105;47.964;7.982;2023-08-06T07:20:10;0.68;;;0.20;;
47365;SDS011;33105;47.964;7.982;2023-08-06T07:23:11;0.68;;;0.30;;
47365;SDS011;33105;47.964;7.982;2023-08-06T07:26:12;1.27;;;0.35;;
47365;SDS011;33105;47.964;7.982;2023-08-06T07:29:13;0.20;;;0.20;;
47365;SDS011;33105;47.964;7.982;2023-08-06T07:32:20;1.02;;;0.10;;
47365;SDS011;33105;47.964;7.982;2023-08-06T07:35:21;2.90;;;0.40;;
47365;SDS011;33105;47.964;7.982;2023-08-06T07:38:22;0.43;;;0.22;;
47365;SDS011;33105;47.964;7.982;2023-08-06T07:41:24;0.47;;;0.30;;
47365;SDS011;33105;47.964;7.982;2023-08-06T07:44:25;0.40;;;0.20;;
47365;SDS011;33105;47.964;7.982;2023-08-06T07:47:26;0.70;;;0.20;;
47365;SDS011;33105;47.964;7.982;2023-08-06T07:50:27;0.28;;;0.20;;
47365;SDS011;33105;47.964;7.982;2023-08-06T07:53:29;1.20;;;0.20;;
47365;SDS011;33105;47.964;7.982;2023-08-06T07:56:30;0.10;;;0.10;;
47365;SDS011;33105;47.964;7.982;2023-08-06T07:59:32;0.25;;;0.15;;
47365;SDS011;33105;47.964;7.982;2023-08-06T08:02:33;0.20;;;0.20;;
47365;SDS011;33105;47.964;7.982;2023-08-06T08:05:34;0.50;;;0.20;;
47365;SDS011;33105;47.964;7.982;2023-08-06T08:08:36;0.75;;;0.20;;
47365;SDS011;33105;47.964;7.982;2023-08-06T08:11:39;0.15;;;0.10;;
47365;SDS011;33105;47.964;7.982;2023-08-06T08:14:43;0.68;;;0.20;;
47365;SDS011;33105;47.964;7.982;2023-08-06T08:17:46;0.43;;;0.13;;
47365;SDS011;33105;47.964;7.982;2023-08-06T08:20:48;0.85;;;0.13;;
47365;SDS011;33105;47.964;7.982;2023-08-06T08:23:50;0.38;;;0.20;;
47365;SDS011;33105;47.964;7.982;2023-08-06T08:26:52;0.15;;;0.15;;
47365;SDS011;33105;47.964;7.982;2023-08-06T08:29:56;0.85;;;0.15;;
47365;SDS011;33105;47.964;7.982;2023-08-06T08:32:57;0.52;;;0.17;;
47365;SDS011;33105;47.964;7.982;2023-08-06T08:35:58;0.35;;;0.22;;
47365;SDS011;33105;47.964;7.982;2023-08-06T08:39:00;2.90;;;0.20;;
47365;SDS011;33105;47.964;7.982;2023-08-06T08:42:01;0.43;;;0.10;;
47365;SDS011;33105;47.964;7.982;2023-08-06T08:45:04;0.20;;;0.10;;
47365;SDS011;33105;47.964;7.982;2023-08-06T08:48:07;0.30;;;0.20;;
47365;SDS011;33105;47.964;7.982;2023-08-06T08:51:15;0.10;;;0.10;;
47365;SDS011;33105;47.964;7.982;2023-08-06T08:54:18;0.40;;;0.40;;
47365;SDS011;33105;47.964;7.982;2023-08-06T08:57:21;0.10;;;0.00;;
47365;SDS011;33105;47.964;7.982;2023-08-06T09:00:22;0.20;;;0.10;;
47365;SDS011;33105;47.964;7.982;2023-08-06T09:03:24;0.47;;;0.10;;
47365;SDS011;33105;47.964;7.982;2023-08-06T09:06:26;0.20;;;0.10;;
47365;SDS011;33105;47.964;7.982;2023-08-06T09:09:31;0.20;;;0.20;;
47365;SDS011;33105;47.964;7.982;2023-08-06T09:12:34;0.10;;;0.10;;
47365;SDS011;33105;47.964;7.982;2023-08-06T09:15:35;0.32;;;0.20;;
47365;SDS011;33105;47.964;7.982;2023-08-06T09:18:37;1.55;;;0.10;;
47365;SDS011;33105;47.964;7.982;2023-08-06T09:21:40;0.30;;;0.10;;
47365;SDS011;33105;47.964;7.982;2023-08-06T09:24:41;0.55;;;0.20;;
47365;SDS011;33105;47.964;7.982;2023-08-06T09:27:46;0.10;;;0.10;;
47365;SDS011;33105;47.964;7.982;2023-08-06T09:30:48;0.80;;;0.10;;
47365;SDS011;33105;47.964;7.982;2023-08-06T09:33:49;0.03;;;0.00;;
47365;SDS011;33105;47.964;7.982;2023-08-06T09:36:53;0.70;;;0.57;;
47365;SDS011;33105;47.964;7.982;2023-08-06T09:39:58;0.00;;;0.00;;
47365;SDS011;33105;47.964;7.982;2023-08-06T09:42:59;0.10;;;0.00;;
47365;SDS011;33105;47.964;7.982;2023-08-06T09:46:00;0.00;;;0.00;;
47365;SDS011;33105;47.964;7.982;2023-08-06T09:49:02;2.00;;;0.10;;
47365;SDS011;33105;47.964;7.982;2023-08-06T09:52:04;0.10;;;0.10;;
47365;SDS011;33105;47.964;7.982;2023-08-06T09:55:07;0.10;;;0.10;;
47365;SDS011;33105;47.964;7.982;2023-08-06T09:58:09;0.47;;;0.10;;
47365;SDS011;33105;47.964;7.982;2023-08-06T10:01:10;0.20;;;0.10;;
47365;SDS011;33105;47.964;7.982;2023-08-06T10:04:13;0.05;;;0.05;;
47365;SDS011;33105;47.964;7.982;2023-08-06T10:07:17;0.10;;;0.10;;
47365;SDS011;33105;47.964;7.982;2023-08-06T10:10:19;0.10;;;0.00;;
47365;SDS011;33105;47.964;7.982;2023-08-06T10:13:20;0.57;;;0.10;;
47365;SDS011;33105;47.964;7.982;2023-08-06T10:16:23;2.03;;;0.30;;
47365;SDS011;33105;47.964;7.982;2023-08-06T10:19:25;0.40;;;0.22;;
47365;SDS011;33105;47.964;7.982;2023-08-06T10:22:28;0.20;;;0.10;;
47365;SDS011;33105;47.964;7.982;2023-08-06T10:25:34;0.10;;;0.10;;
47365;SDS011;33105;47.964;7.982;2023-08-06T10:28:37;0.10;;;0.10;;
47365;SDS011;33105;47.964;7.982;2023-08-06T10:31:55;0.57;;;0.20;;
47365;SDS011;33105;47.964;7.982;2023-08-06T10:35:00;0.10;;;0.10;;
47365;SDS011;33105;47.964;7.982;2023-08-06T10:38:09;0.10;;;0.10;;
47365;SDS011;33105;47.964;7.982;2023-08-06T10:41:16;0.20;;;0.20;;
47365;SDS011;33105;47.964;7.982;2023-08-06T10:44:23;1.05;;;0.20;;
47365;SDS011;33105;47.964;7.982;2023-08-06T10:47:28;0.85;;;0.10;;
47365;SDS011;33105;47.964;7.982;2023-08-06T10:50:29;0.20;;;0.10;;
47365;SDS011;33105;47.964;7.982;2023-08-06T10:53:32;0.60;;;0.10;;
47365;SDS011;33105;47.964;7.982;2023-08-06T10:56:38;0.10;;;0.10;;
47365;SDS011;33105;47.964;7.982;2023-08-06T10:59:41;0.10;;;0.10;;
47365;SDS011;33105;47.964;7.982;2023-08-06T11:02:43;0.28;;;0.10;;
47365;SDS011;33105;47.964;7.982;2023-08-06T11:05:50;0.47;;;0.10;;
47365;SDS011;33105;47.964;7.982;2023-08-06T11:08:52;0.77;;;0.17;;
47365;SDS011;33105;47.964;7.982;2023-08-06T11:11:55;0.20;;;0.20;;
47365;SDS011;33105;47.964;7.982;2023-08-06T11:14:56;0.00;;;0.00;;
47365;SDS011;33105;47.964;7.982;2023-08-06T11:17:57;0.30;;;0.20;;
47365;SDS011;33105;47.964;7.982;2023-08-06T11:20:59;1.02;;;0.10;;
47365;SDS011;33105;47.964;7.982;2023-08-06T11:24:01;0.30;;;0.20;;
47365;SDS011;33105;47.964;7.982;2023-08-06T11:27:10;0.30;;;0.20;;
47365;SDS011;33105;47.964;7.982;2023-08-06T11:30:12;0.20;;;0.20;;
47365;SDS011;33105;47.964;7.982;2023-08-06T11:33:19;0.30;;;0.30;;
47365;SDS011;33105;47.964;7.982;2023-08-06T11:36:32;2.15;;;0.40;;
47365;SDS011;33105;47.964;7.982;2023-08-06T11:39:45;0.28;;;0.20;;
47365;SDS011;33105;47.964;7.982;2023-08-06T11:42:48;1.10;;;0.35;;
47365;SDS011;33105;47.964;7.982;2023-08-06T11:45:50;0.75;;;0.30;;
47365;SDS011;33105;47.964;7.982;2023-08-06T11:48:52;1.25;;;0.20;;
47365;SDS011;33105;47.964;7.982;2023-08-06T11:51:54;0.20;;;0.20;;
47365;SDS011;33105;47.964;7.982;2023-08-06T11:58:05;0.20;;;0.10;;
47365;SDS011;33105;47.964;7.982;2023-08-06T12:01:06;0.32;;;0.20;;
47365;SDS011;33105;47.964;7.982;2023-08-06T12:04:08;0.63;;;0.17;;
47365;SDS011;33105;47.964;7.982;2023-08-06T12:07:12;0.17;;;0.17;;
47365;SDS011;33105;47.964;7.982;2023-08-06T12:10:22;0.20;;;0.20;;
47365;SDS011;33105;47.964;7.982;2023-08-06T12:13:27;0.40;;;0.40;;
47365;SDS011;33105;47.964;7.982;2023-08-06T12:16:29;0.20;;;0.20;;
47365;SDS011;33105;47.964;7.982;2023-08-06T12:19:30;0.20;;;0.20;;
47365;SDS011;33105;47.964;7.982;2023-08-06T12:22:32;0.63;;;0.30;;
47365;SDS011;33105;47.964;7.982;2023-08-06T12:25:38;0.40;;;0.40;;
47365;SDS011;33105;47.964;7.982;2023-08-06T12:28:40;2.20;;;0.25;;
47365;SDS011;33105;47.964;7.982;2023-08-06T12:31:41;0.68;;;0.47;;
47365;SDS011;33105;47.964;7.982;2023-08-06T12:34:42;0.55;;;0.50;;
47365;SDS011;33105;47.964;7.982;2023-08-06T12:37:44;0.85;;;0.40;;
47365;SDS011;33105;47.964;7.982;2023-08-06T12:40:46;3.08;;;0.95;;
47365;SDS011;33105;47.964;7.982;2023-08-06T12:43:47;1.13;;;0.57;;
47365;SDS011;33105;47.964;7.982;2023-08-06T12:46:49;3.05;;;0.65;;
47365;SDS011;33105;47.964;7.982;2023-08-06T12:50:01;1.35;;;0.52;;
47365;SDS011;33105;47.964;7.982;2023-08-06T12:53:02;0.85;;;0.47;;
47365;SDS011;33105;47.964;7.982;2023-08-06T12:56:06;1.63;;;0.50;;
47365;SDS011;33105;47.964;7.982;2023-08-06T12:59:13;1.90;;;0.70;;
47365;SDS011;33105;47.964;7.982;2023-08-06T13:02:18;4.40;;;0.77;;
47365;SDS011;33105;47.964;7.982;2023-08-06T13:05:20;5.53;;;0.70;;
47365;SDS011;33105;47.964;7.982;2023-08-06T13:08:21;7.78;;;1.10;;
47365;SDS011;33105;47.964;7.982;2023-08-06T13:11:22;0.52;;;0.50;;
47365;SDS011;33105;47.964;7.982;2023-08-06T13:14:24;1.33;;;0.70;;
47365;SDS011;33105;47.964;7.982;2023-08-06T13:17:25;0.95;;;0.70;;
47365;SDS011;33105;47.964;7.982;2023-08-06T13:20:30;1.17;;;0.80;;
47365;SDS011;33105;47.964;7.982;2023-08-06T13:23:31;1.10;;;0.82;;
47365;SDS011;33105;47.964;7.982;2023-08-06T13:26:54;1.50;;;0.93;;
47365;SDS011;33105;47.964;7.982;2023-08-06T13:34:03;2.20;;;0.70;;
47365;SDS011;33105;47.964;7.982;2023-08-06T13:40:18;1.25;;;0.60;;
47365;SDS011;33105;47.964;7.982;2023-08-06T13:43:20;1.25;;;0.70;;
47365;SDS011;33105;47.964;7.982;2023-08-06T13:47:17;1.20;;;0.70;;
47365;SDS011;33105;47.964;7.982;2023-08-06T13:50:39;2.85;;;0.80;;
47365;SDS011;33105;47.964;7.982;2023-08-06T13:54:15;1.55;;;1.02;;
47365;SDS011;33105;47.964;7.982;2023-08-06T13:57:23;2.25;;;0.77;;
47365;SDS011;33105;47.964;7.982;2023-08-06T14:00:28;1.70;;;0.98;;
47365;SDS011;33105;47.964;7.982;2023-08-06T14:03:38;3.65;;;0.90;;
47365;SDS011;33105;47.964;7.982;2023-08-06T14:06:39;2.10;;;0.90;;
47365;SDS011;33105;47.964;7.982;2023-08-06T14:09:41;2.97;;;1.05;;
47365;SDS011;33105;47.964;7.982;2023-08-06T14:12:45;3.42;;;0.80;;
47365;SDS011;33105;47.964;7.982;2023-08-06T14:15:46;2.75;;;1.00;;
47365;SDS011;33105;47.964;7.982;2023-08-06T14:18:47;3.17;;;1.00;;
47365;SDS011;33105;47.964;7.982;2023-08-06T14:21:49;2.13;;;0.77;;
47365;SDS011;33105;47.964;7.982;2023-08-06T14:24:50;3.45;;;0.93;;
47365;SDS011;33105;47.964;7.982;2023-08-06T14:27:52;2.05;;;1.00;;
47365;SDS011;33105;47.964;7.982;2023-08-06T14:30:55;2.25;;;1.17;;
47365;SDS011;33105;47.964;7.982;2023-08-06T14:33:57;2.33;;;0.80;;
47365;SDS011;33105;47.964;7.982;2023-08-06T14:36:59;1.98;;;1.00;;
47365;SDS011;33105;47.964;7.982;2023-08-06T14:40:03;2.80;;;0.90;;
47365;SDS011;33105;47.964;7.982;2023-08-06T14:43:05;4.18;;;1.67;;
47365;SDS011;33105;47.964;7.982;2023-08-06T14:46:07;3.63;;;1.05;;
47365;SDS011;33105;47.964;7.982;2023-08-06T14:49:08;4.32;;;1.35;;
47365;SDS011;33105;47.964;7.982;2023-08-06T14:52:09;3.45;;;1.02;;
47365;SDS011;33105;47.964;7.982;2023-08-06T14:55:11;2.17;;;0.93;;
47365;SDS011;33105;47.964;7.982;2023-08-06T14:58:24;1.17;;;0.70;;
47365;SDS011;33105;47.964;7.982;2023-08-06T15:01:26;2.53;;;1.10;;
47365;SDS011;33105;47.964;7.982;2023-08-06T15:04:28;3.85;;;1.33;;
47365;SDS011;33105;47.964;7.982;2023-08-06T15:07:35;2.58;;;1.05;;
47365;SDS011;33105;47.964;7.982;2023-08-06T15:10:38;2.05;;;1.15;;
47365;SDS011;33105;47.964;7.982;2023-08-06T15:13:40;3.97;;;1.05;;
47365;SDS011;33105;47.964;7.982;2023-08-06T15:16:47;1.85;;;1.00;;
47365;SDS011;33105;47.964;7.982;2023-08-06T15:19:58;3.08;;;1.08;;
47365;SDS011;33105;47.964;7.982;2023-08-06T15:22:59;1.05;;;0.88;;
47365;SDS011;33105;47.964;7.982;2023-08-06T15:26:01;1.77;;;1.20;;
47365;SDS011;33105;47.964;7.982;2023-08-06T15:29:02;4.30;;;1.10;;
47365;SDS011;33105;47.964;7.982;2023-08-06T15:32:04;1.92;;;1.20;;
47365;SDS011;33105;47.964;7.982;2023-08-06T15:35:05;2.90;;;1.30;;
47365;SDS011;33105;47.964;7.982;2023-08-06T15:38:07;2.83;;;1.15;;
47365;SDS011;33105;47.964;7.982;2023-08-06T15:41:08;3.53;;;1.40;;
47365;SDS011;33105;47.964;7.982;2023-08-06T15:44:10;1.90;;;1.27;;
47365;SDS011;33105;47.964;7.982;2023-08-06T15:47:11;6.00;;;1.25;;
47365;SDS011;33105;47.964;7.982;2023-08-06T15:50:13;4.65;;;1.48;;
47365;SDS011;33105;47.964;7.982;2023-08-06T15:53:14;4.55;;;1.60;;
47365;SDS011;33105;47.964;7.982;2023-08-06T15:56:16;5.75;;;1.42;;
47365;SDS011;33105;47.964;7.982;2023-08-06T15:59:35;5.47;;;1.30;;
47365;SDS011;33105;47.964;7.982;2023-08-06T16:05:56;3.15;;;1.52;;
47365;SDS011;33105;47.964;7.982;2023-08-06T16:08:58;1.98;;;1.40;;
47365;SDS011;33105;47.964;7.982;2023-08-06T16:11:59;2.38;;;1.40;;
47365;SDS011;33105;47.964;7.982;2023-08-06T16:15:01;5.13;;;1.77;;
47365;SDS011;33105;47.964;7.982;2023-08-06T16:18:02;3.13;;;1.48;;
47365;SDS011;33105;47.964;7.982;2023-08-06T16:21:03;1.48;;;1.35;;
47365;SDS011;33105;47.964;7.982;2023-08-06T16:24:05;4.65;;;1.38;;
47365;SDS011;33105;47.964;7.982;2023-08-06T16:27:08;2.35;;;1.48;;
47365;SDS011;33105;47.964;7.982;2023-08-06T16:30:12;2.45;;;1.75;;
47365;SDS011;33105;47.964;7.982;2023-08-06T16:33:15;3.20;;;1.42;;
47365;SDS011;33105;47.964;7.982;2023-08-06T16:36:16;6.78;;;1.35;;
47365;SDS011;33105;47.964;7.982;2023-08-06T16:39:17;3.00;;;1.02;;
47365;SDS011;33105;47.964;7.982;2023-08-06T16:42:22;5.15;;;1.42;;
47365;SDS011;33105;47.964;7.982;2023-08-06T16:45:23;4.25;;;1.55;;
47365;SDS011;33105;47.964;7.982;2023-08-06T16:48:25;3.72;;;1.30;;
47365;SDS011;33105;47.964;7.982;2023-08-06T16:51:31;4.10;;;1.55;;
47365;SDS011;33105;47.964;7.982;2023-08-06T16:54:32;6.00;;;1.75;;
47365;SDS011;33105;47.964;7.982;2023-08-06T16:57:34;1.90;;;1.40;;
47365;SDS011;33105;47.964;7.982;2023-08-06T17:00:35;2.83;;;1.50;;
47365;SDS011;33105;47.964;7.982;2023-08-06T17:03:37;2.83;;;1.70;;
47365;SDS011;33105;47.964;7.982;2023-08-06T17:06:39;2.92;;;1.70;;
47365;SDS011;33105;47.964;7.982;2023-08-06T17:09:40;5.70;;;1.77;;
47365;SDS011;33105;47.964;7.982;2023-08-06T17:12:42;7.18;;;2.20;;
47365;SDS011;33105;47.964;7.982;2023-08-06T17:15:44;6.38;;;2.20;;
47365;SDS011;33105;47.964;7.982;2023-08-06T17:18:46;3.53;;;1.70;;
47365;SDS011;33105;47.964;7.982;2023-08-06T17:21:48;4.63;;;2.10;;
47365;SDS011;33105;47.964;7.982;2023-08-06T17:24:49;4.07;;;1.98;;
47365;SDS011;33105;47.964;7.982;2023-08-06T17:27:51;7.22;;;2.35;;
47365;SDS011;33105;47.964;7.982;2023-08-06T17:30:52;4.82;;;1.80;;
47365;SDS011;33105;47.964;7.982;2023-08-06T17:33:54;4.13;;;2.20;;
47365;SDS011;33105;47.964;7.982;2023-08-06T17:36:55;6.30;;;2.17;;
47365;SDS011;33105;47.964;7.982;2023-08-06T17:39:56;3.63;;;1.90;;
47365;SDS011;33105;47.964;7.982;2023-08-06T17:42:58;3.38;;;2.38;;
47365;SDS011;33105;47.964;7.982;2023-08-06T17:46:00;3.47;;;2.25;;
47365;SDS011;33105;47.964;7.982;2023-08-06T17:49:02;7.55;;;2.42;;
47365;SDS011;33105;47.964;7.982;2023-08-06T17:52:03;5.18;;;1.80;;
47365;SDS011;33105;47.964;7.982;2023-08-06T17:55:05;4.43;;;1.70;;
47365;SDS011;33105;47.964;7.982;2023-08-06T17:58:07;2.20;;;1.35;;
47365;SDS011;33105;47.964;7.982;2023-08-06T18:01:09;1.95;;;1.67;;
47365;SDS011;33105;47.964;7.982;2023-08-06T18:04:10;5.25;;;1.90;;
47365;SDS011;33105;47.964;7.982;2023-08-06T18:07:12;5.47;;;1.73;;
47365;SDS011;33105;47.964;7.982;2023-08-06T18:10:14;6.28;;;1.90;;
47365;SDS011;33105;47.964;7.982;2023-08-06T18:13:16;3.92;;;1.60;;
47365;SDS011;33105;47.964;7.982;2023-08-06T18:16:18;5.28;;;2.22;;
47365;SDS011;33105;47.964;7.982;2023-08-06T18:19:20;3.03;;;1.90;;
47365;SDS011;33105;47.964;7.982;2023-08-06T18:22:22;4.13;;;2.05;;
47365;SDS011;33105;47.964;7.982;2023-08-06T18:25:23;3.65;;;2.15;;
47365;SDS011;33105;47.964;7.982;2023-08-06T18:28:25;6.05;;;2.20;;
47365;SDS011;33105;47.964;7.982;2023-08-06T18:31:27;3.25;;;2.00;;
47365;SDS011;33105;47.964;7.982;2023-08-06T18:34:29;4.55;;;1.98;;
47365;SDS011;33105;47.964;7.982;2023-08-06T18:37:30;4.88;;;2.35;;
47365;SDS011;33105;47.964;7.982;2023-08-06T18:40:31;5.63;;;2.05;;
47365;SDS011;33105;47.964;7.982;2023-08-06T18:43:33;4.70;;;2.10;;
47365;SDS011;33105;47.964;7.982;2023-08-06T18:46:34;5.00;;;1.73;;
47365;SDS011;33105;47.964;7.982;2023-08-06T18:49:35;4.05;;;1.92;;
47365;SDS011;33105;47.964;7.982;2023-08-06T18:52:37;5.57;;;2.30;;
47365;SDS011;33105;47.964;7.982;2023-08-06T18:55:47;4.95;;;2.25;;
47365;SDS011;33105;47.964;7.982;2023-08-06T18:58:49;3.45;;;2.50;;
47365;SDS011;33105;47.964;7.982;2023-08-06T19:01:50;7.78;;;2.35;;
47365;SDS011;33105;47.964;7.982;2023-08-06T19:04:54;2.90;;;2.30;;
47365;SDS011;33105;47.964;7.982;2023-08-06T19:07:56;4.70;;;2.13;;
47365;SDS011;33105;47.964;7.982;2023-08-06T19:10:57;5.85;;;2.20;;
47365;SDS011;33105;47.964;7.982;2023-08-06T19:13:59;6.72;;;2.58;;
47365;SDS011;33105;47.964;7.982;2023-08-06T19:17:01;7.30;;;2.55;;